• Join FlightAware (Why Join?)
  • Login
  • US Flag 
01:08AM EDT


 

Airport Tracker/Info


-or-


 

Live Flight TrackerFlight Track Log ✈ N1169Z ✈ 16-Aug-2013 ✈ KCEK - KBDH

Flight Track Log - Related Links

Times and Time Zones

All times are in EDT time to prevent confusion due to time zone crossing. See the N1169Z flight status page for this flight to view local times or setup timezone preferences in your user account.

Time Position Orientation Groundspeed Altitude Reporting Facility
EDT Latitude Longitude Course Direction KTS MPH feet Rate Location/Type
07:24PM 40.6458 -96.8919 16° North 97 112 3,200  Level Minneapolis Center
07:25PM 40.6736 -96.9008 346° North 92 106 3,700 720 Climbing Minneapolis Center
07:26PM 40.7008 -96.8906 16° North 99 114 4,500 660 Climbing Minneapolis Center
07:27PM 40.7281 -96.8783 19° North 101 116 5,100 240 Climbing Minneapolis Center
07:28PM 40.7717 -96.8617 16° North 117 135 5,100  Level Minneapolis Center
07:29PM 40.8153 -96.8486 13° North 144 166 5,100  Level Minneapolis Center
07:30PM 40.8583 -96.8306 18° North 157 181 5,100 -60 Level Minneapolis Center
07:31PM 40.8981 -96.8033 27° Northeast 164 189 5,000  Descending Minneapolis Center
07:32PM 40.9450 -96.7914 11° North 164 189 5,100  Climbing Minneapolis Center
07:33PM 40.9897 -96.7758 15° North 164 189 5,000 -60 Descending Minneapolis Center
07:34PM 41.0356 -96.7678 North 165 190 5,000 -60 Level Minneapolis Center
07:35PM 41.0833 -96.7539 12° North 162 186 4,900  Descending Minneapolis Center
07:36PM 41.1164 -96.7478 North 161 185 5,000  Climbing Minneapolis Center
07:37PM 41.1569 -96.7269 21° North 164 189 5,000  Level Minneapolis Center
07:38PM 41.2119 -96.7047 17° North 163 188 5,000  Level Minneapolis Center
07:39PM 41.2619 -96.6842 17° North 164 189 5,000  Level Minneapolis Center
07:40PM 41.3042 -96.6650 19° North 163 188 5,000  Level Minneapolis Center
07:41PM 41.3567 -96.6408 19° North 164 189 5,100  Climbing Minneapolis Center
07:42PM 41.4003 -96.6228 17° North 164 189 5,000 -60 Descending Minneapolis Center
07:43PM 41.4453 -96.6053 16° North 165 190 5,000 -60 Level Minneapolis Center
07:44PM 41.4906 -96.5908 13° North 166 191 4,900  Descending Minneapolis Center
07:45PM 41.5186 -96.5867 North 157 181 5,000 60 Climbing Minneapolis Center
07:46PM 41.5681 -96.5758 North 155 178 5,100  Climbing Minneapolis Center
07:48PM 41.6194 -96.5517 19° North 159 183 5,100 -60 Level Minneapolis Center
07:49PM 41.6717 -96.5258 20° North 162 186 5,000 60 Descending Minneapolis Center
07:50PM 41.7139 -96.5058 19° North 163 188 5,300 300 Climbing Minneapolis Center
07:51PM 41.7553 -96.4944 12° North 158 182 5,700 360 Climbing Minneapolis Center
07:52PM 41.7925 -96.4811 15° North 149 171 6,100 360 Climbing Minneapolis Center
07:53PM 41.8306 -96.4692 13° North 144 166 6,500 300 Climbing Minneapolis Center
07:54PM 41.8675 -96.4564 14° North 140 161 6,800 240 Climbing Minneapolis Center
07:55PM 41.9050 -96.4431 15° North 139 160 7,100 180 Climbing Minneapolis Center
07:56PM 41.9517 -96.4267 15° North 141 162 7,200  Climbing Minneapolis Center
07:57PM 41.9925 -96.4086 18° North 146 168 7,100 -120 Descending Minneapolis Center
07:58PM 42.0356 -96.3853 22° Northeast 155 178 7,000 -60 Descending Minneapolis Center
07:59PM 42.0769 -96.3642 21° North 158 182 7,000  Level Minneapolis Center
08:00PM 42.1194 -96.3522 12° North 158 182 7,000  Level Minneapolis Center
08:01PM 42.1611 -96.3406 12° North 156 180 7,000  Level Minneapolis Center
08:02PM 42.2108 -96.3244 13° North 154 177 7,100  Climbing Minneapolis Center
08:03PM 42.2519 -96.3069 17° North 154 177 7,100  Level Minneapolis Center
08:04PM 42.2931 -96.2878 19° North 154 177 7,100 -60 Level Minneapolis Center
08:05PM 42.3353 -96.2683 19° North 157 181 7,000 -120 Descending Minneapolis Center
08:06PM 42.3781 -96.2428 24° Northeast 161 185 6,900 -60 Descending Minneapolis Center
08:07PM 42.4200 -96.2272 15° North 161 185 6,900  Level Minneapolis Center
08:08PM 42.4633 -96.2142 13° North 159 183 7,000  Climbing Minneapolis Center
08:09PM 42.5139 -96.1964 15° North 158 182 7,000  Level Minneapolis Center
08:10PM 42.5561 -96.1858 10° North 156 180 7,000  Level Minneapolis Center
08:11PM 42.5978 -96.1692 16° North 155 178 7,100  Climbing Minneapolis Center
08:12PM 42.6400 -96.1531 16° North 157 181 7,100  Level Minneapolis Center
08:13PM 42.6833 -96.1408 12° North 159 183 7,100 -60 Level Minneapolis Center
08:14PM 42.7322 -96.1131 23° Northeast 160 184 7,000 -60 Descending Minneapolis Center
08:15PM 42.7750 -96.0867 24° Northeast 166 191 7,000 -60 Level Minneapolis Center
08:16PM 42.8194 -96.0697 16° North 167 192 6,900 -60 Descending Minneapolis Center
08:17PM 42.8631 -96.0517 17° North 166 191 6,900  Level Minneapolis Center
08:18PM 42.9050 -96.0361 15° North 160 184 7,000  Climbing Minneapolis Center
08:20PM 42.9478 -96.0225 13° North 158 182 7,000  Level Minneapolis Center
08:21PM 42.9978 -96.0044 15° North 155 178 7,000  Level Minneapolis Center
08:22PM 43.0417 -95.9872 16° North 161 185 7,000  Level Minneapolis Center
08:23PM 43.0853 -95.9703 16° North 162 186 7,000  Level Minneapolis Center
08:24PM 43.1281 -95.9531 16° North 162 186 7,100  Climbing Minneapolis Center
08:25PM 43.1717 -95.9375 15° North 161 185 7,000 -60 Descending Minneapolis Center
08:26PM 43.2147 -95.9192 17° North 162 186 7,000  Level Minneapolis Center
08:27PM 43.2672 -95.8981 16° North 163 188 7,000  Level Minneapolis Center
08:28PM 43.3197 -95.8758 17° North 164 189 7,000  Level Minneapolis Center
08:29PM 43.3628 -95.8597 15° North 163 188 7,000  Level Minneapolis Center
08:30PM 43.4050 -95.8428 16° North 161 185 7,000  Level Minneapolis Center
08:31PM 43.4492 -95.8242 17° North 163 188 7,000  Level Minneapolis Center
08:32PM 43.5014 -95.8022 17° North 163 188 7,000  Level Minneapolis Center
08:33PM 43.5447 -95.7842 17° North 164 189 7,000  Level Minneapolis Center
08:34PM 43.5878 -95.7678 15° North 163 188 7,000  Level Minneapolis Center
08:35PM 43.6297 -95.7506 17° North 161 185 7,100  Climbing Minneapolis Center
08:36PM 43.6736 -95.7333 16° North 161 185 7,100 -60 Level Minneapolis Center
08:37PM 43.7172 -95.7144 17° North 163 188 7,000 -60 Descending Minneapolis Center
08:38PM 43.7697 -95.6922 17° North 164 189 7,000  Level Minneapolis Center
08:39PM 43.8128 -95.6747 16° North 164 189 7,100  Climbing Minneapolis Center
08:40PM 43.8561 -95.6572 16° North 163 188 7,000 -60 Descending Minneapolis Center
08:41PM 43.8992 -95.6394 17° North 163 188 7,000  Level Minneapolis Center
08:42PM 43.9419 -95.6217 17° North 162 186 7,000  Level Minneapolis Center
08:44PM 43.9936 -95.6019 15° North 162 186 7,100  Climbing Minneapolis Center
08:45PM 44.0361 -95.5844 16° North 161 185 7,100  Level Minneapolis Center
08:46PM 44.0794 -95.5667 16° North 161 185 7,100  Level Minneapolis Center
08:47PM 44.1222 -95.5483 17° North 162 186 7,200  Climbing Minneapolis Center
08:48PM 44.1656 -95.5294 17° North 163 188 7,100 -120 Descending Minneapolis Center
08:49PM 44.2100 -95.5072 20° North 168 193 7,000 -60 Descending Minneapolis Center
08:50PM 44.2628 -95.4828 18° North 168 193 7,000  Level Minneapolis Center
08:51PM 44.3069 -95.4669 14° North 165 190 7,000  Level Minneapolis Center
08:52PM 44.3508 -95.4489 16° North 165 190 7,100  Climbing Minneapolis Center
08:53PM 44.3939 -95.4300 17° North 164 189 7,100  Level Minneapolis Center
08:54PM 44.4381 -95.4125 16° North 165 190 7,100  Level Minneapolis Center
08:55PM 44.4914 -95.3892 17° North 167 192 7,100 -60 Level Minneapolis Center
08:56PM 44.5356 -95.3697 17° North 167 192 7,000 -300 Descending Minneapolis Center
08:57PM 44.5811 -95.3506 17° North 169 194 6,600 -540 Descending Minneapolis Center
08:58PM 44.6294 -95.3286 18° North 177 204 5,900 -660 Descending Minneapolis Center
08:59PM 44.6794 -95.3069 17° North 185 213 5,300 -540 Descending Minneapolis Center
09:00PM 44.7289 -95.2961 North 182 209 4,800 -540 Descending Minneapolis Center
09:01PM 44.7864 -95.2681 19° North 183 211 4,200 -420 Descending Minneapolis Center
09:02PM 44.8317 -95.2444 20° North 180 207 4,000 -240 Descending Minneapolis Center